createdAt,value
2022-09-18T00:00:49.020Z,98213.42
2022-09-18T00:04:07.423Z,98210.91
2022-09-18T00:07:09.640Z,98212.97
2022-09-18T00:10:12.140Z,98211.14
2022-09-18T00:13:17.014Z,98212.29
2022-09-18T00:16:20.591Z,98208.07
2022-09-18T00:19:22.749Z,98203.70
2022-09-18T00:22:24.720Z,98206.46
2022-09-18T00:25:26.619Z,98207.81
2022-09-18T00:28:28.757Z,98207.56
2022-09-18T00:31:35.958Z,98207.97
2022-09-18T00:34:39.750Z,98202.64
2022-09-18T00:37:41.462Z,98207.31
2022-09-18T00:40:43.428Z,98203.72
2022-09-18T00:43:45.627Z,98199.75
2022-09-18T00:46:47.587Z,98196.55
2022-09-18T00:50:04.037Z,98194.99
2022-09-18T00:53:06.407Z,98194.28
2022-09-18T00:56:09.906Z,98188.27
2022-09-18T00:59:13.359Z,98188.32
2022-09-18T01:02:15.935Z,98184.04
2022-09-18T01:05:37.722Z,98181.52
2022-09-18T01:08:55.901Z,98179.64
2022-09-18T01:12:03.826Z,98177.56
2022-09-18T01:15:20.846Z,98171.81
2022-09-18T01:18:38.131Z,98173.89
2022-09-18T01:21:45.152Z,98173.14
2022-09-18T01:25:20.257Z,98173.90
2022-09-18T01:28:35.421Z,98174.23
2022-09-18T01:31:44.313Z,98180.08
2022-09-18T01:35:23.946Z,98174.55
2022-09-18T01:39:07.981Z,98176.90
2022-09-18T01:42:11.288Z,98175.33
2022-09-18T01:45:17.467Z,98172.21
2022-09-18T01:48:28.759Z,98170.96
2022-09-18T01:51:37.086Z,98176.04
2022-09-18T01:54:42.537Z,98174.59
2022-09-18T01:57:51.990Z,98175.82
2022-09-18T02:00:57.872Z,98180.31
2022-09-18T02:04:03.888Z,98177.30
2022-09-18T02:07:15.967Z,98178.33
2022-09-18T02:10:19.473Z,98184.00
2022-09-18T02:13:24.966Z,98185.65
2022-09-18T02:16:30.622Z,98186.34
2022-09-18T02:19:54.644Z,98191.39
2022-09-18T02:22:59.615Z,98193.89
2022-09-18T02:26:04.605Z,98193.31
2022-09-18T02:29:08.730Z,98194.20
2022-09-18T02:32:10.727Z,98197.71
2022-09-18T02:35:13.318Z,98197.30
2022-09-18T02:38:28.731Z,98200.92
2022-09-18T02:41:36.686Z,98202.88
2022-09-18T02:44:59.273Z,98204.00
2022-09-18T02:48:11.548Z,98206.04
2022-09-18T02:51:35.289Z,98209.30
2022-09-18T02:55:08.962Z,98214.58
2022-09-18T02:58:35.938Z,98212.35
2022-09-18T03:01:41.726Z,98219.66
2022-09-18T03:04:44.363Z,98219.45
2022-09-18T03:07:46.240Z,98223.20
2022-09-18T03:10:48.113Z,98222.04
2022-09-18T03:13:50.099Z,98225.07
2022-09-18T03:16:51.851Z,98228.70
2022-09-18T03:19:54.293Z,98229.80
2022-09-18T03:22:56.116Z,98232.49
2022-09-18T03:25:57.929Z,98233.66
2022-09-18T03:28:59.849Z,98235.45
2022-09-18T03:32:01.994Z,98241.39
2022-09-18T03:35:04.231Z,98243.27
2022-09-18T03:38:05.962Z,98245.54
2022-09-18T03:41:07.866Z,98248.50
2022-09-18T03:44:09.645Z,98246.66
2022-09-18T03:47:11.728Z,98250.05
2022-09-18T03:50:15.166Z,98248.45
2022-09-18T03:53:17.190Z,98248.41
2022-09-18T03:56:19.340Z,98247.73
2022-09-18T03:59:21.266Z,98249.19
2022-09-18T04:02:23.044Z,98251.65
2022-09-18T04:05:24.959Z,98255.74
2022-09-18T04:08:27.283Z,98255.63
2022-09-18T04:11:29.112Z,98265.98
2022-09-18T04:14:31.097Z,98264.97
2022-09-18T04:17:32.843Z,98268.75
2022-09-18T04:20:34.630Z,98266.23
2022-09-18T04:23:36.669Z,98277.23
2022-09-18T04:26:38.388Z,98273.86
2022-09-18T04:29:40.167Z,98276.12
2022-09-18T04:32:43.684Z,98281.33
2022-09-18T04:35:45.458Z,98283.26
2022-09-18T04:38:47.306Z,98289.81
2022-09-18T04:41:50.646Z,98291.59
2022-09-18T04:44:52.433Z,98296.88
2022-09-18T04:47:54.199Z,98293.27
2022-09-18T04:50:56.026Z,98295.14
2022-09-18T04:53:57.866Z,98298.48
2022-09-18T04:56:59.762Z,98300.06
2022-09-18T05:00:01.846Z,98296.99
2022-09-18T05:03:04.821Z,98304.20
2022-09-18T05:06:06.722Z,98305.27
2022-09-18T05:09:08.490Z,98311.00
2022-09-18T05:12:10.672Z,98307.67
2022-09-18T05:15:12.456Z,98308.96
2022-09-18T05:18:14.266Z,98311.52
2022-09-18T05:21:16.258Z,98313.16
2022-09-18T05:24:18.281Z,98312.17
2022-09-18T05:27:24.716Z,98315.23
2022-09-18T05:30:29.485Z,98317.73
2022-09-18T05:33:31.863Z,98316.70
2022-09-18T05:36:33.615Z,98322.73
2022-09-18T05:39:35.481Z,98321.77
2022-09-18T05:42:37.324Z,98325.32
2022-09-18T05:45:39.128Z,98328.00
2022-09-18T05:48:41.229Z,98331.21
2022-09-18T05:51:45.142Z,98331.80
2022-09-18T05:54:46.937Z,98332.54
2022-09-18T05:57:52.481Z,98334.14
2022-09-18T06:00:58.818Z,98338.40
2022-09-18T06:04:02.847Z,98339.11
2022-09-18T06:07:05.576Z,98339.29
2022-09-18T06:10:07.691Z,98338.85
2022-09-18T06:13:13.225Z,98342.44
2022-09-18T06:16:16.237Z,98341.09
2022-09-18T06:19:18.071Z,98341.56
2022-09-18T06:22:19.862Z,98343.34
2022-09-18T06:25:22.257Z,98349.78
2022-09-18T06:28:24.225Z,98350.55
2022-09-18T06:31:26.075Z,98351.33
2022-09-18T06:34:28.037Z,98348.52
2022-09-18T06:37:29.779Z,98353.89
2022-09-18T06:40:32.308Z,98354.51
2022-09-18T06:43:34.355Z,98354.59
2022-09-18T06:46:36.299Z,98352.45
2022-09-18T06:49:38.390Z,98353.80
2022-09-18T06:52:40.273Z,98353.26
2022-09-18T06:55:42.074Z,98353.79
2022-09-18T06:58:44.264Z,98352.25
2022-09-18T07:01:49.138Z,98354.83
2022-09-18T07:04:52.181Z,98358.79
2022-09-18T07:07:54.538Z,98363.07
2022-09-18T07:11:02.112Z,98361.47
2022-09-18T07:14:08.306Z,98365.89
2022-09-18T07:17:16.926Z,98366.72
2022-09-18T07:20:20.651Z,98362.48
2022-09-18T07:23:22.474Z,98368.86
2022-09-18T07:26:24.598Z,98364.11
2022-09-18T07:29:26.426Z,98362.70
2022-09-18T07:32:28.319Z,98369.16
2022-09-18T07:35:30.331Z,98365.68
2022-09-18T07:38:34.430Z,98363.94
2022-09-18T07:41:36.282Z,98365.98
2022-09-18T07:44:38.302Z,98367.52
2022-09-18T07:47:40.142Z,98369.41
2022-09-18T07:50:42.907Z,98370.52
2022-09-18T07:53:44.703Z,98371.73
2022-09-18T07:56:47.189Z,98373.48
2022-09-18T07:59:49.374Z,98371.54
2022-09-18T08:02:51.361Z,98376.20
2022-09-18T08:05:53.611Z,98370.61
2022-09-18T08:08:55.551Z,98371.54
2022-09-18T08:11:57.422Z,98374.58
2022-09-18T08:14:59.413Z,98372.66
2022-09-18T08:18:01.277Z,98370.08
2022-09-18T08:21:06.193Z,98372.20
2022-09-18T08:24:10.438Z,98368.95
2022-09-18T08:27:12.986Z,98366.91
2022-09-18T08:30:16.252Z,98369.46
2022-09-18T08:33:18.075Z,98365.22
2022-09-18T08:36:19.843Z,98363.41
2022-09-18T08:39:21.790Z,98363.29
2022-09-18T08:42:35.475Z,98367.13
2022-09-18T08:45:56.126Z,98367.73
2022-09-18T08:49:25.226Z,98365.13
2022-09-18T08:52:29.519Z,98362.35
2022-09-18T08:55:35.870Z,98364.37
2022-09-18T08:58:52.723Z,98369.94
2022-09-18T09:02:05.636Z,98365.64
2022-09-18T09:05:11.136Z,98366.26
2022-09-18T09:08:12.821Z,98363.58
2022-09-18T09:11:17.314Z,98363.84
2022-09-18T09:14:57.001Z,98366.06
2022-09-18T09:18:31.406Z,98360.71
2022-09-18T09:21:52.036Z,98367.09
2022-09-18T09:25:21.470Z,98361.38
2022-09-18T09:28:31.591Z,98359.78
2022-09-18T09:31:37.491Z,98369.27
2022-09-18T09:34:51.166Z,98360.77
2022-09-18T09:37:53.849Z,98361.17
2022-09-18T09:40:58.735Z,98355.82
2022-09-18T09:44:03.263Z,98360.84
2022-09-18T09:47:29.156Z,98355.45
2022-09-18T09:50:47.166Z,98353.70
2022-09-18T09:53:49.742Z,98359.04
2022-09-18T09:57:14.979Z,98359.77
2022-09-18T10:00:18.829Z,98362.83
2022-09-18T10:03:49.588Z,98366.17
2022-09-18T10:06:57.805Z,98368.89
2022-09-18T10:10:06.063Z,98370.06
2022-09-18T10:13:21.947Z,98375.81
2022-09-18T10:16:31.542Z,98381.13
2022-09-18T10:19:38.716Z,98382.63
2022-09-18T10:22:40.596Z,98379.95
2022-09-18T10:25:47.107Z,98370.70
2022-09-18T10:28:49.002Z,98363.88
2022-09-18T10:32:02.001Z,98359.45
2022-09-18T10:35:29.013Z,98364.95
2022-09-18T10:38:34.361Z,98367.44
2022-09-18T10:41:39.115Z,98371.63
2022-09-18T10:44:42.131Z,98375.08
2022-09-18T10:47:44.966Z,98376.84
2022-09-18T10:51:00.778Z,98375.07
2022-09-18T10:54:05.438Z,98373.41
2022-09-18T10:57:30.394Z,98372.59
2022-09-18T11:00:38.180Z,98376.08
2022-09-18T11:04:02.141Z,98372.98
2022-09-18T11:07:07.612Z,98375.39
2022-09-18T11:10:10.004Z,98378.98
2022-09-18T11:13:21.774Z,98376.63
2022-09-18T11:16:27.325Z,98381.77
2022-09-18T11:19:32.791Z,98384.08
2022-09-18T11:22:40.434Z,98379.63
2022-09-18T11:25:42.778Z,98375.20
2022-09-18T11:28:59.022Z,98370.77
2022-09-18T11:32:20.056Z,98373.18
2022-09-18T11:35:22.681Z,98369.39
2022-09-18T11:38:24.703Z,98369.02
2022-09-18T11:41:33.028Z,98370.38
2022-09-18T11:44:35.374Z,98375.82
2022-09-18T11:47:44.421Z,98378.45
2022-09-18T11:50:46.898Z,98391.45
2022-09-18T11:53:52.208Z,98409.20
2022-09-18T11:56:59.199Z,98416.85
2022-09-18T12:00:09.398Z,98419.01
2022-09-18T12:03:37.907Z,98423.14
2022-09-18T12:07:06.466Z,98424.51
2022-09-18T12:10:32.105Z,98425.08
2022-09-18T12:13:53.506Z,98428.48
2022-09-18T12:17:14.306Z,98428.80
2022-09-18T12:20:31.970Z,98421.29
2022-09-18T12:23:34.849Z,98414.38
2022-09-18T12:26:52.416Z,98418.02
2022-09-18T12:30:11.111Z,98418.08
2022-09-18T12:33:22.001Z,98415.25
2022-09-18T12:36:48.093Z,98417.58
2022-09-18T12:40:19.021Z,98419.16
2022-09-18T12:43:59.331Z,98424.37
2022-09-18T12:47:16.312Z,98435.14
2022-09-18T12:50:44.970Z,98433.14
2022-09-18T12:54:06.240Z,98437.00
2022-09-18T12:57:49.506Z,98432.34
2022-09-18T13:00:51.869Z,98430.84
2022-09-18T13:03:56.807Z,98429.20
2022-09-18T13:07:05.685Z,98430.41
2022-09-18T13:10:28.626Z,98430.50
2022-09-18T13:13:45.450Z,98439.30
2022-09-18T13:16:54.845Z,98445.14
2022-09-18T13:20:01.219Z,98449.80
2022-09-18T13:23:03.265Z,98458.92
2022-09-18T13:26:07.211Z,98454.84
2022-09-18T13:29:46.484Z,98454.90
2022-09-18T13:32:48.396Z,98456.49
2022-09-18T13:35:57.865Z,98455.04
2022-09-18T13:39:06.414Z,98463.94
2022-09-18T13:42:08.315Z,98471.00
2022-09-18T13:45:21.744Z,98473.65
2022-09-18T13:48:39.421Z,98475.83
2022-09-18T13:51:41.298Z,98478.99
2022-09-18T13:55:28.732Z,98480.23
2022-09-18T13:58:37.227Z,98476.25
2022-09-18T14:01:42.084Z,98464.70
2022-09-18T14:04:50.008Z,98467.67
2022-09-18T14:07:54.832Z,98468.89
2022-09-18T14:11:15.315Z,98472.49
2022-09-18T14:14:21.949Z,98477.05
2022-09-18T14:17:25.637Z,98473.84
2022-09-18T14:20:28.232Z,98480.91
2022-09-18T14:23:36.113Z,98483.81
2022-09-18T14:26:38.697Z,98486.04
2022-09-18T14:29:40.953Z,98485.64
2022-09-18T14:32:51.479Z,98485.63
2022-09-18T14:36:07.328Z,98484.49
2022-09-18T14:39:27.315Z,98488.11
2022-09-18T14:42:33.141Z,98489.16
2022-09-18T14:45:35.455Z,98490.30
2022-09-18T14:48:39.004Z,98494.37
2022-09-18T14:52:03.180Z,98497.74
2022-09-18T14:55:11.335Z,98501.82
2022-09-18T14:58:17.765Z,98500.88
2022-09-18T15:01:30.265Z,98499.95
2022-09-18T15:04:32.200Z,98501.73
2022-09-18T15:07:35.170Z,98502.52
2022-09-18T15:10:38.900Z,98504.09
2022-09-18T15:13:40.818Z,98510.36
2022-09-18T15:16:42.686Z,98509.55
2022-09-18T15:20:10.104Z,98511.19
2022-09-18T15:23:47.543Z,98513.27
2022-09-18T15:26:56.364Z,98514.86
2022-09-18T15:30:08.328Z,98521.08
2022-09-18T15:33:25.860Z,98519.62
2022-09-18T15:36:32.251Z,98525.06
2022-09-18T15:39:37.214Z,98524.46
2022-09-18T15:42:41.484Z,98528.56
2022-09-18T15:46:20.928Z,98530.63
2022-09-18T15:49:30.908Z,98534.92
2022-09-18T15:52:49.257Z,98532.75
2022-09-18T15:55:57.774Z,98535.33
2022-09-18T15:59:00.831Z,98535.48
2022-09-18T16:02:17.787Z,98537.77
2022-09-18T16:05:22.693Z,98542.71
2022-09-18T16:08:29.379Z,98542.67
2022-09-18T16:11:45.488Z,98542.89
2022-09-18T16:14:58.992Z,98544.57
2022-09-18T16:18:21.252Z,98547.23
2022-09-18T16:21:25.421Z,98548.52
2022-09-18T16:24:30.073Z,98544.79
2022-09-18T16:27:32.928Z,98546.40
2022-09-18T16:30:34.810Z,98546.88
2022-09-18T16:33:59.473Z,98550.53
2022-09-18T16:37:01.278Z,98552.42
2022-09-18T16:40:03.575Z,98551.38
2022-09-18T16:43:05.764Z,98554.52
2022-09-18T16:46:07.537Z,98558.66
2022-09-18T16:49:10.623Z,98560.15
2022-09-18T16:52:12.815Z,98556.50
2022-09-18T16:55:15.875Z,98556.38
2022-09-18T16:58:19.184Z,98557.20
2022-09-18T17:01:23.374Z,98555.09
2022-09-18T17:04:26.238Z,98561.38
2022-09-18T17:07:29.967Z,98560.84
2022-09-18T17:10:32.926Z,98561.45
2022-09-18T17:13:34.639Z,98561.40
2022-09-18T17:16:44.473Z,98568.83
2022-09-18T17:19:46.884Z,98572.69
2022-09-18T17:22:50.759Z,98578.85
2022-09-18T17:25:52.615Z,98579.52
2022-09-18T17:28:55.053Z,98583.90
2022-09-18T17:31:56.801Z,98584.80
2022-09-18T17:34:58.667Z,98585.94
2022-09-18T17:38:00.780Z,98589.11
2022-09-18T17:41:05.291Z,98588.84
2022-09-18T17:44:07.094Z,98595.69
2022-09-18T17:47:08.918Z,98598.17
2022-09-18T17:50:10.690Z,98600.38
2022-09-18T17:53:12.421Z,98604.54
2022-09-18T17:56:16.990Z,98604.93
2022-09-18T17:59:18.975Z,98608.52
2022-09-18T18:02:21.070Z,98611.06
2022-09-18T18:05:23.885Z,98616.27
2022-09-18T18:08:27.502Z,98612.99
2022-09-18T18:11:30.262Z,98613.70
2022-09-18T18:14:36.042Z,98612.43
2022-09-18T18:17:38.060Z,98619.03
2022-09-18T18:20:40.266Z,98618.00
2022-09-18T18:23:42.349Z,98617.98
2022-09-18T18:26:45.141Z,98618.33
2022-09-18T18:29:47.635Z,98617.25
2022-09-18T18:32:51.877Z,98614.61
2022-09-18T18:35:53.731Z,98621.02
2022-09-18T18:38:57.302Z,98618.56
2022-09-18T18:41:59.038Z,98615.20
2022-09-18T18:45:02.545Z,98614.84
2022-09-18T18:48:08.187Z,98614.10
2022-09-18T18:51:17.230Z,98616.05
2022-09-18T18:54:23.542Z,98617.55
2022-09-18T18:57:25.618Z,98617.52
2022-09-18T19:00:27.622Z,98620.25
2022-09-18T19:03:29.362Z,98618.20
2022-09-18T19:06:31.461Z,98618.27
2022-09-18T19:09:33.838Z,98615.36
2022-09-18T19:12:35.607Z,98617.90
2022-09-18T19:15:38.515Z,98613.23
2022-09-18T19:18:41.409Z,98615.73
2022-09-18T19:21:43.612Z,98620.20
2022-09-18T19:24:45.335Z,98629.77
2022-09-18T19:27:47.239Z,98637.54
2022-09-18T19:30:49.491Z,98638.36
2022-09-18T19:33:52.735Z,98631.88
2022-09-18T19:36:54.661Z,98622.66
2022-09-18T19:39:57.249Z,98620.80
2022-09-18T19:43:06.738Z,98625.35
2022-09-18T19:46:13.847Z,98624.04
2022-09-18T19:49:19.896Z,98623.23
2022-09-18T19:52:25.110Z,98620.77
2022-09-18T19:55:27.434Z,98620.35
2022-09-18T19:58:29.190Z,98622.27
2022-09-18T20:01:31.257Z,98622.02
2022-09-18T20:04:37.137Z,98621.64
2022-09-18T20:07:41.170Z,98618.69
2022-09-18T20:10:42.942Z,98618.52
2022-09-18T20:13:49.300Z,98617.65
2022-09-18T20:16:51.630Z,98617.17
2022-09-18T20:19:53.443Z,98614.34
2022-09-18T20:22:56.029Z,98613.27
2022-09-18T20:25:57.805Z,98609.64
2022-09-18T20:28:59.713Z,98609.05
2022-09-18T20:32:03.012Z,98611.08
2022-09-18T20:35:05.742Z,98614.55
2022-09-18T20:38:07.818Z,98614.88
2022-09-18T20:41:14.984Z,98611.94
2022-09-18T20:44:17.566Z,98616.86
2022-09-18T20:47:19.435Z,98615.27
2022-09-18T20:50:27.875Z,98617.16
2022-09-18T20:53:29.837Z,98613.75
2022-09-18T20:56:34.220Z,98611.13
2022-09-18T20:59:36.300Z,98611.23
2022-09-18T21:02:38.275Z,98608.11
2022-09-18T21:05:43.181Z,98605.34
2022-09-18T21:08:47.458Z,98605.71
2022-09-18T21:11:49.285Z,98606.92
2022-09-18T21:14:51.164Z,98606.48
2022-09-18T21:17:52.942Z,98607.02
2022-09-18T21:21:05.337Z,98603.33
2022-09-18T21:24:09.023Z,98603.05
2022-09-18T21:27:10.902Z,98597.89
2022-09-18T21:30:12.909Z,98597.03
2022-09-18T21:33:15.568Z,98597.71
2022-09-18T21:36:17.481Z,98597.70
2022-09-18T21:39:19.297Z,98593.13
2022-09-18T21:42:21.049Z,98593.39
2022-09-18T21:45:24.423Z,98587.40
2022-09-18T21:48:26.332Z,98579.34
2022-09-18T21:51:28.225Z,98577.34
2022-09-18T21:54:31.138Z,98575.55
2022-09-18T21:57:33.087Z,98573.99
2022-09-18T22:00:37.491Z,98569.77
2022-09-18T22:03:39.793Z,98574.10
2022-09-18T22:06:45.608Z,98580.25
2022-09-18T22:09:47.554Z,98576.59
2022-09-18T22:12:49.522Z,98575.48
2022-09-18T22:15:56.148Z,98576.29
2022-09-18T22:18:58.200Z,98567.94
2022-09-18T22:22:00.964Z,98562.52
2022-09-18T22:25:03.455Z,98567.02
2022-09-18T22:28:06.581Z,98566.98
2022-09-18T22:31:08.601Z,98558.50
2022-09-18T22:34:10.561Z,98557.73
2022-09-18T22:37:12.580Z,98554.27
2022-09-18T22:40:14.867Z,98552.61
2022-09-18T22:43:18.809Z,98552.20
2022-09-18T22:46:21.260Z,98552.39
2022-09-18T22:49:23.989Z,98547.98
2022-09-18T22:52:26.229Z,98545.58
2022-09-18T22:55:28.397Z,98546.77
2022-09-18T22:58:30.373Z,98551.54
2022-09-18T23:01:42.740Z,98557.49
2022-09-18T23:05:05.193Z,98555.92
2022-09-18T23:08:24.341Z,98554.52
2022-09-18T23:11:28.623Z,98555.72
2022-09-18T23:14:34.090Z,98549.84
2022-09-18T23:17:35.831Z,98548.00
2022-09-18T23:20:37.726Z,98548.41
2022-09-18T23:23:42.733Z,98545.17
2022-09-18T23:26:46.565Z,98539.67
2022-09-18T23:29:49.140Z,98531.84
2022-09-18T23:32:51.303Z,98535.02
2022-09-18T23:35:53.091Z,98532.11
2022-09-18T23:39:00.746Z,98531.88
2022-09-18T23:42:05.840Z,98528.34
2022-09-18T23:45:08.357Z,98524.21
2022-09-18T23:48:10.203Z,98521.14
2022-09-18T23:51:12.590Z,98517.02
2022-09-18T23:54:19.842Z,98516.71
2022-09-18T23:57:22.737Z,98520.02
